createdAt,value
2017-08-01T00:01:37.144Z,96821.31
2017-08-01T00:04:04.782Z,96826.20
2017-08-01T00:06:32.593Z,96823.95
2017-08-01T00:09:00.225Z,96831.57
2017-08-01T00:11:27.880Z,96830.48
2017-08-01T00:13:55.488Z,96825.39
2017-08-01T00:16:23.141Z,96829.33
2017-08-01T00:18:50.780Z,96823.73
2017-08-01T00:21:18.431Z,96821.22
2017-08-01T00:23:46.051Z,96812.61
2017-08-01T00:26:13.900Z,96818.63
2017-08-01T00:28:41.523Z,96813.10
2017-08-01T00:31:09.170Z,96816.59
2017-08-01T00:33:36.768Z,96808.45
2017-08-01T00:36:04.380Z,96803.70
2017-08-01T00:38:31.962Z,96800.70
2017-08-01T00:40:59.751Z,96796.75
2017-08-01T00:43:27.366Z,96793.64
2017-08-01T00:45:55.188Z,96801.77
2017-08-01T00:48:22.804Z,96811.62
2017-08-01T00:50:50.536Z,96807.50
2017-08-01T00:53:18.168Z,96808.09
2017-08-01T00:55:45.879Z,96808.70
2017-08-01T00:58:13.488Z,96808.04
2017-08-01T01:00:41.114Z,96817.28
2017-08-01T01:03:08.831Z,96808.45
2017-08-01T01:05:36.618Z,96813.63
2017-08-01T01:08:04.217Z,96815.39
2017-08-01T01:10:31.950Z,96819.28
2017-08-01T01:12:59.573Z,96810.73
2017-08-01T01:15:27.215Z,96809.03
2017-08-01T01:17:54.813Z,96815.17
2017-08-01T01:20:22.456Z,96810.14
2017-08-01T01:22:50.083Z,96823.17
2017-08-01T01:25:17.740Z,96820.28
2017-08-01T01:27:45.397Z,96824.71
2017-08-01T01:30:13.042Z,96832.58
2017-08-01T01:32:40.667Z,96829.32
2017-08-01T01:35:08.554Z,96829.95
2017-08-01T01:37:36.552Z,96827.12
2017-08-01T01:40:04.170Z,96825.47
2017-08-01T01:42:31.809Z,96825.16
2017-08-01T01:44:59.542Z,96832.17
2017-08-01T01:47:27.175Z,96828.00
2017-08-01T01:49:54.800Z,96826.41
2017-08-01T01:52:22.431Z,96828.80
2017-08-01T01:54:50.038Z,96820.01
2017-08-01T01:57:17.699Z,96824.88
2017-08-01T01:59:45.481Z,96822.47
2017-08-01T02:02:13.327Z,96823.94
2017-08-01T02:04:41.104Z,96824.06
2017-08-01T02:07:08.737Z,96830.14
2017-08-01T02:09:36.408Z,96822.96
2017-08-01T02:12:04.021Z,96829.06
2017-08-01T02:14:31.633Z,96825.73
2017-08-01T02:16:59.251Z,96832.23
2017-08-01T02:19:26.885Z,96844.39
2017-08-01T02:21:54.515Z,96841.92
2017-08-01T02:24:22.120Z,96846.83
2017-08-01T02:26:49.872Z,96841.86
2017-08-01T02:29:17.490Z,96847.28
2017-08-01T02:31:45.329Z,96849.16
2017-08-01T02:34:13.116Z,96845.42
2017-08-01T02:36:40.741Z,96857.12
2017-08-01T02:39:08.368Z,96864.10
2017-08-01T02:41:36.014Z,96857.77
2017-08-01T02:44:03.660Z,96853.97
2017-08-01T02:46:31.289Z,96858.73
2017-08-01T02:49:05.102Z,96857.09
2017-08-01T02:51:32.747Z,96861.84
2017-08-01T02:54:00.359Z,96858.89
2017-08-01T02:56:27.989Z,96861.06
2017-08-01T02:58:55.656Z,96855.14
2017-08-01T03:01:23.402Z,96857.39
2017-08-01T03:03:51.141Z,96866.86
2017-08-01T03:06:18.772Z,96858.36
2017-08-01T03:08:46.389Z,96861.38
2017-08-01T03:11:14.010Z,96861.86
2017-08-01T03:13:41.638Z,96862.72
2017-08-01T03:16:09.294Z,96869.52
2017-08-01T03:18:36.928Z,96864.81
2017-08-01T03:21:04.628Z,96866.15
2017-08-01T03:23:32.275Z,96867.97
2017-08-01T03:25:59.880Z,96870.94
2017-08-01T03:28:27.606Z,96870.54
2017-08-01T03:30:55.230Z,96857.30
2017-08-01T03:33:22.847Z,96860.30
2017-08-01T03:35:50.460Z,96865.83
2017-08-01T03:38:18.089Z,96870.92
2017-08-01T03:40:45.702Z,96867.11
2017-08-01T03:43:13.340Z,96866.26
2017-08-01T03:45:41.112Z,96861.17
2017-08-01T03:48:08.757Z,96857.04
2017-08-01T03:50:36.337Z,96865.20
2017-08-01T03:53:03.979Z,96861.11
2017-08-01T03:55:31.634Z,96872.30
2017-08-01T03:57:59.284Z,96868.64
2017-08-01T04:00:26.909Z,96877.56
2017-08-01T04:02:55.013Z,96869.51
2017-08-01T04:05:22.637Z,96874.66
2017-08-01T04:07:50.293Z,96875.59
2017-08-01T04:10:17.943Z,96878.98
2017-08-01T04:12:45.835Z,96879.84
2017-08-01T04:15:13.455Z,96880.28
2017-08-01T04:17:41.106Z,96882.55
2017-08-01T04:20:08.758Z,96878.65
2017-08-01T04:22:36.418Z,96884.19
2017-08-01T04:25:04.068Z,96892.38
2017-08-01T04:27:31.702Z,96895.05
2017-08-01T04:29:59.367Z,96897.52
2017-08-01T04:32:27.019Z,96894.91
2017-08-01T04:34:54.756Z,96905.11
2017-08-01T04:37:22.797Z,96905.48
2017-08-01T04:39:50.594Z,96904.58
2017-08-01T04:42:19.563Z,96901.53
2017-08-01T04:44:59.036Z,96907.92
2017-08-01T04:47:27.084Z,96923.36
2017-08-01T04:49:54.737Z,96926.31
2017-08-01T04:52:22.360Z,96938.28
2017-08-01T04:54:50.082Z,96951.14
2017-08-01T04:57:17.709Z,96957.11
2017-08-01T04:59:45.497Z,96951.05
2017-08-01T05:02:13.124Z,96953.49
2017-08-01T05:04:40.889Z,96949.11
2017-08-01T05:07:08.487Z,96945.05
2017-08-01T05:09:36.154Z,96947.77
2017-08-01T05:12:03.924Z,96956.59
2017-08-01T05:14:31.571Z,96963.97
2017-08-01T05:16:59.196Z,96963.30
2017-08-01T05:19:26.825Z,96961.37
2017-08-01T05:21:54.503Z,96964.55
2017-08-01T05:24:22.230Z,96960.43
2017-08-01T05:26:49.943Z,96958.89
2017-08-01T05:29:17.570Z,96952.22
2017-08-01T05:31:45.224Z,96954.97
2017-08-01T05:34:12.928Z,96960.77
2017-08-01T05:36:40.571Z,96952.39
2017-08-01T05:39:08.226Z,96954.69
2017-08-01T05:41:35.855Z,96952.78
2017-08-01T05:44:03.511Z,96953.89
2017-08-01T05:46:31.328Z,96949.00
2017-08-01T05:48:58.973Z,96956.56
2017-08-01T05:51:26.595Z,96949.83
2017-08-01T05:53:54.319Z,96963.61
2017-08-01T05:56:21.976Z,96949.26
2017-08-01T05:58:49.944Z,96956.50
2017-08-01T06:01:17.681Z,96961.98
2017-08-01T06:03:45.307Z,96958.97
2017-08-01T06:06:12.920Z,96966.55
2017-08-01T06:08:40.682Z,96972.87
2017-08-01T06:11:09.519Z,96966.25
2017-08-01T06:13:37.243Z,96969.55
2017-08-01T06:16:04.858Z,96975.71
2017-08-01T06:18:32.531Z,96963.45
2017-08-01T06:21:00.207Z,96961.53
2017-08-01T06:23:27.843Z,96966.38
2017-08-01T06:25:55.655Z,96984.52
2017-08-01T06:28:23.304Z,96974.27
2017-08-01T06:30:50.947Z,96986.98
2017-08-01T06:33:18.699Z,97025.00
2017-08-01T06:35:46.364Z,97022.83
2017-08-01T06:38:13.989Z,97031.89
2017-08-01T06:40:42.030Z,97040.56
2017-08-01T06:43:09.645Z,97042.94
2017-08-01T06:45:37.309Z,97048.23
2017-08-01T06:48:05.075Z,97058.80
2017-08-01T06:50:32.736Z,97055.52
2017-08-01T06:53:00.429Z,97057.34
2017-08-01T06:55:28.075Z,97069.95
2017-08-01T06:57:55.686Z,97050.17
2017-08-01T07:00:23.339Z,97054.70
2017-08-01T07:02:50.944Z,97064.11
2017-08-01T07:05:18.591Z,97056.77
2017-08-01T07:07:46.230Z,97059.30
2017-08-01T07:10:13.864Z,97034.14
2017-08-01T07:12:41.504Z,97071.27
2017-08-01T07:15:09.148Z,97061.50
2017-08-01T07:17:36.730Z,97061.90
2017-08-01T07:20:04.373Z,97051.48
2017-08-01T07:22:31.975Z,97062.25
2017-08-01T07:24:59.824Z,97051.56
2017-08-01T07:27:27.454Z,97060.06
2017-08-01T07:29:55.409Z,97055.58
2017-08-01T07:32:23.150Z,97062.48
2017-08-01T07:34:50.784Z,97069.52
2017-08-01T07:37:18.397Z,97061.05
2017-08-01T07:39:46.161Z,97066.52
2017-08-01T07:42:13.801Z,97059.23
2017-08-01T07:44:41.806Z,97058.06
2017-08-01T07:47:09.561Z,97055.81
2017-08-01T07:49:37.221Z,97054.17
2017-08-01T07:52:05.081Z,97054.47
2017-08-01T07:54:32.836Z,97055.99
2017-08-01T07:57:00.487Z,97051.92
2017-08-01T07:59:28.447Z,97056.12
2017-08-01T08:01:56.050Z,97057.16
2017-08-01T08:04:23.657Z,97038.98
2017-08-01T08:06:51.301Z,97041.23
2017-08-01T08:09:18.931Z,97041.34
2017-08-01T08:11:46.598Z,97036.10
2017-08-01T08:14:14.240Z,97042.36
2017-08-01T08:16:41.960Z,97035.60
2017-08-01T08:19:09.546Z,97027.87
2017-08-01T08:21:37.192Z,97026.64
2017-08-01T08:24:04.804Z,97025.14
2017-08-01T08:26:32.462Z,97019.67
2017-08-01T08:29:00.092Z,97015.91
2017-08-01T08:31:27.736Z,97018.69
2017-08-01T08:33:55.383Z,97013.60
2017-08-01T08:36:23.009Z,97011.68
2017-08-01T08:38:50.754Z,97011.71
2017-08-01T08:41:18.989Z,97011.72
2017-08-01T08:43:46.590Z,97006.81
2017-08-01T08:46:14.254Z,97012.23
2017-08-01T08:48:42.004Z,97011.29
2017-08-01T08:51:09.665Z,97010.55
2017-08-01T08:53:37.272Z,97002.17
2017-08-01T08:56:04.935Z,97000.88
2017-08-01T08:58:32.551Z,97000.41
2017-08-01T09:01:00.211Z,96996.28
2017-08-01T09:03:27.837Z,97000.32
2017-08-01T09:05:55.459Z,97002.11
2017-08-01T09:08:23.103Z,97007.95
2017-08-01T09:10:50.915Z,97003.98
2017-08-01T09:13:18.617Z,97000.53
2017-08-01T09:15:46.222Z,97001.52
2017-08-01T09:18:13.884Z,96997.53
2017-08-01T09:20:42.337Z,96987.03
2017-08-01T09:23:09.978Z,96987.16
2017-08-01T09:25:37.622Z,96986.00
2017-08-01T09:28:05.338Z,96987.41
2017-08-01T09:30:32.973Z,96980.89
2017-08-01T09:33:00.632Z,96976.33
2017-08-01T09:35:28.262Z,96977.48
2017-08-01T09:37:55.936Z,96978.06
2017-08-01T09:40:23.667Z,96965.20
2017-08-01T09:42:51.321Z,96966.83
2017-08-01T09:45:19.056Z,96965.42
2017-08-01T09:47:46.744Z,96959.77
2017-08-01T09:50:14.366Z,96960.48
2017-08-01T09:52:42.017Z,96960.05
2017-08-01T09:55:09.640Z,96961.66
2017-08-01T09:57:37.371Z,96953.75
2017-08-01T10:00:05.015Z,96955.91
2017-08-01T10:02:32.637Z,96948.61
2017-08-01T10:05:00.411Z,96952.72
2017-08-01T10:07:28.153Z,96951.45
2017-08-01T10:09:55.776Z,96948.39
2017-08-01T10:12:23.431Z,96947.80
2017-08-01T10:14:51.044Z,96943.91
2017-08-01T10:17:18.712Z,96941.94
2017-08-01T10:19:46.304Z,96942.47
2017-08-01T10:22:13.939Z,96938.55
2017-08-01T10:24:41.562Z,96929.47
2017-08-01T10:27:09.206Z,96928.19
2017-08-01T10:29:36.972Z,96923.14
2017-08-01T10:32:04.593Z,96917.89
2017-08-01T10:34:32.201Z,96924.70
2017-08-01T10:36:59.853Z,96920.42
2017-08-01T10:39:27.448Z,96920.69
2017-08-01T10:41:55.494Z,96925.41
2017-08-01T10:44:23.111Z,96921.80
2017-08-01T10:46:50.823Z,96918.35
2017-08-01T10:49:18.482Z,96914.59
2017-08-01T10:51:46.112Z,96916.91
2017-08-01T10:54:13.936Z,96913.66
2017-08-01T10:56:41.692Z,96911.98
2017-08-01T10:59:09.353Z,96917.28
2017-08-01T11:01:37.094Z,96910.20
2017-08-01T11:04:04.730Z,96919.55
2017-08-01T11:06:32.427Z,96917.41
2017-08-01T11:09:00.188Z,96911.67
2017-08-01T11:11:27.835Z,96913.87
2017-08-01T11:13:55.507Z,96903.05
2017-08-01T11:16:23.092Z,96901.13
2017-08-01T11:18:50.740Z,96902.97
2017-08-01T11:21:18.398Z,96896.53
2017-08-01T11:23:46.024Z,96893.90
2017-08-01T11:26:14.311Z,96887.70
2017-08-01T11:28:42.088Z,96880.67
2017-08-01T11:31:09.759Z,96878.23
2017-08-01T11:33:37.807Z,96873.29
2017-08-01T11:36:05.527Z,96869.47
2017-08-01T11:38:33.470Z,96863.63
2017-08-01T11:41:01.043Z,96866.63
2017-08-01T11:43:28.692Z,96864.48
2017-08-01T11:45:56.303Z,96858.08
2017-08-01T11:48:23.953Z,96859.45
2017-08-01T11:50:51.602Z,96863.78
2017-08-01T11:53:19.259Z,96859.86
2017-08-01T11:55:46.888Z,96854.41
2017-08-01T11:58:14.537Z,96858.14
2017-08-01T12:00:43.922Z,96854.70
2017-08-01T12:03:11.575Z,96854.70
2017-08-01T12:05:39.478Z,96850.94
2017-08-01T12:08:07.138Z,96852.80
2017-08-01T12:10:36.018Z,96849.02
2017-08-01T12:13:05.025Z,96849.80
2017-08-01T12:15:32.664Z,96846.13
2017-08-01T12:18:00.356Z,96845.87
2017-08-01T12:20:28.106Z,96841.84
2017-08-01T12:22:55.758Z,96843.80
2017-08-01T12:25:23.514Z,96836.76
2017-08-01T12:27:51.455Z,96829.59
2017-08-01T12:30:19.115Z,96821.23
2017-08-01T12:32:46.723Z,96825.03
2017-08-01T12:35:14.353Z,96812.41
2017-08-01T12:37:42.321Z,96808.46
2017-08-01T12:40:09.962Z,96798.18
2017-08-01T12:42:37.606Z,96789.27
2017-08-01T12:45:06.637Z,96792.54
2017-08-01T12:47:34.257Z,96786.34
2017-08-01T12:50:01.927Z,96783.09
2017-08-01T12:52:29.583Z,96774.23
2017-08-01T12:54:57.268Z,96777.34
2017-08-01T12:57:24.953Z,96773.90
2017-08-01T12:59:52.596Z,96775.66
2017-08-01T13:02:20.435Z,96773.07
2017-08-01T13:04:48.079Z,96775.57
2017-08-01T13:07:15.703Z,96769.62
2017-08-01T13:09:43.409Z,96764.69
2017-08-01T13:12:11.068Z,96763.39
2017-08-01T13:14:38.753Z,96759.31
2017-08-01T13:17:06.364Z,96765.77
2017-08-01T13:19:34.053Z,96759.16
2017-08-01T13:22:01.680Z,96750.91
2017-08-01T13:24:29.375Z,96754.19
2017-08-01T13:26:57.606Z,96748.41
2017-08-01T13:29:25.264Z,96739.70
2017-08-01T13:31:52.876Z,96749.16
2017-08-01T13:34:20.642Z,96744.88
2017-08-01T13:36:48.651Z,96744.23
2017-08-01T13:39:16.292Z,96741.88
2017-08-01T13:41:43.902Z,96732.17
2017-08-01T13:44:11.893Z,96734.47
2017-08-01T13:46:39.580Z,96729.97
2017-08-01T13:49:07.202Z,96726.10
2017-08-01T13:51:34.829Z,96732.80
2017-08-01T13:54:02.441Z,96725.84
2017-08-01T13:56:31.522Z,96723.47
2017-08-01T13:58:59.249Z,96725.68
2017-08-01T14:01:26.912Z,96724.81
2017-08-01T14:03:54.538Z,96718.97
2017-08-01T14:06:22.188Z,96729.36
2017-08-01T14:08:49.913Z,96717.25
2017-08-01T14:11:17.639Z,96715.66
2017-08-01T14:13:45.270Z,96717.97
2017-08-01T14:16:12.919Z,96718.58
2017-08-01T14:18:40.546Z,96722.34
2017-08-01T14:21:08.272Z,96718.11
2017-08-01T14:23:35.893Z,96723.30
2017-08-01T14:26:03.546Z,96726.68
2017-08-01T14:28:31.194Z,96729.25
2017-08-01T14:30:58.915Z,96728.27
2017-08-01T14:33:26.528Z,96725.13
2017-08-01T14:35:54.163Z,96728.43
2017-08-01T14:38:21.789Z,96723.31
2017-08-01T14:40:49.488Z,96724.39
2017-08-01T14:43:17.114Z,96721.58
2017-08-01T14:45:44.782Z,96720.10
2017-08-01T14:48:12.419Z,96715.52
2017-08-01T14:50:40.094Z,96708.71
2017-08-01T14:53:07.935Z,96713.72
2017-08-01T14:55:35.621Z,96706.66
2017-08-01T14:58:03.245Z,96710.48
2017-08-01T15:00:30.959Z,96700.78
2017-08-01T15:02:58.903Z,96696.14
2017-08-01T15:05:26.563Z,96692.55
2017-08-01T15:07:54.294Z,96685.37
2017-08-01T15:10:21.968Z,96674.58
2017-08-01T15:12:50.948Z,96678.19
2017-08-01T15:15:18.575Z,96665.25
2017-08-01T15:17:46.284Z,96654.03
2017-08-01T15:20:13.915Z,96656.09
2017-08-01T15:22:41.739Z,96650.48
2017-08-01T15:25:09.432Z,96644.20
2017-08-01T15:27:38.388Z,96641.28
2017-08-01T15:30:06.087Z,96637.94
2017-08-01T15:32:33.851Z,96641.61
2017-08-01T15:35:01.485Z,96633.57
2017-08-01T15:37:29.319Z,96627.77
2017-08-01T15:39:57.035Z,96634.83
2017-08-01T15:42:24.824Z,96626.97
2017-08-01T15:44:52.456Z,96625.05
2017-08-01T15:47:20.247Z,96622.07
2017-08-01T15:49:47.853Z,96622.24
2017-08-01T15:52:15.487Z,96636.48
2017-08-01T15:54:43.373Z,96627.28
2017-08-01T15:57:11.008Z,96630.13
2017-08-01T15:59:38.704Z,96626.51
2017-08-01T16:02:06.563Z,96628.66
2017-08-01T16:04:34.677Z,96625.83
2017-08-01T16:07:02.451Z,96627.02
2017-08-01T16:09:30.100Z,96623.02
2017-08-01T16:11:57.980Z,96624.32
2017-08-01T16:14:25.616Z,96619.22
2017-08-01T16:16:53.299Z,96621.88
2017-08-01T16:19:20.925Z,96620.95
2017-08-01T16:21:50.234Z,96619.92
2017-08-01T16:24:17.867Z,96618.13
2017-08-01T16:26:45.527Z,96615.34
2017-08-01T16:29:13.141Z,96623.18
2017-08-01T16:31:40.794Z,96617.44
2017-08-01T16:34:08.503Z,96626.03
2017-08-01T16:36:36.512Z,96615.97
2017-08-01T16:39:04.830Z,96618.29
2017-08-01T16:41:32.518Z,96610.87
2017-08-01T16:44:00.249Z,96607.06
2017-08-01T16:46:27.869Z,96609.23
2017-08-01T16:48:55.619Z,96602.72
2017-08-01T16:51:23.241Z,96598.58
2017-08-01T16:53:50.900Z,96593.19
2017-08-01T16:56:19.583Z,96593.55
2017-08-01T16:58:47.378Z,96587.80
2017-08-01T17:01:15.042Z,96597.31
2017-08-01T17:03:42.799Z,96605.09
2017-08-01T17:06:10.535Z,96612.14
2017-08-01T17:08:38.561Z,96623.98
2017-08-01T17:11:06.184Z,96626.19
2017-08-01T17:13:33.923Z,96620.64
2017-08-01T17:16:01.591Z,96631.97
2017-08-01T17:18:29.361Z,96636.06
2017-08-01T17:20:57.046Z,96634.78
2017-08-01T17:23:24.658Z,96646.62
2017-08-01T17:25:52.597Z,96653.08
2017-08-01T17:28:20.340Z,96664.94
2017-08-01T17:30:48.068Z,96670.25
2017-08-01T17:33:15.687Z,96683.33
2017-08-01T17:35:43.311Z,96688.08
2017-08-01T17:38:10.961Z,96676.44
2017-08-01T17:40:38.583Z,96677.63
2017-08-01T17:43:06.234Z,96670.86
2017-08-01T17:45:33.853Z,96677.63
2017-08-01T17:48:01.945Z,96677.23
2017-08-01T17:50:29.667Z,96673.26
2017-08-01T17:52:57.266Z,96658.06
2017-08-01T17:55:24.924Z,96651.22
2017-08-01T17:57:52.577Z,96638.28
2017-08-01T18:00:20.223Z,96632.08
2017-08-01T18:02:47.866Z,96637.88
2017-08-01T18:05:15.524Z,96640.55
2017-08-01T18:07:43.146Z,96638.02
2017-08-01T18:10:10.785Z,96632.52
2017-08-01T18:12:38.433Z,96629.63
2017-08-01T18:15:06.113Z,96635.51
2017-08-01T18:17:33.734Z,96628.12
2017-08-01T18:20:01.399Z,96629.12
2017-08-01T18:22:29.155Z,96632.30
2017-08-01T18:24:56.809Z,96649.34
2017-08-01T18:27:24.448Z,96654.28
2017-08-01T18:29:52.091Z,96668.34
2017-08-01T18:32:19.757Z,96675.79
2017-08-01T18:34:47.423Z,96666.75
2017-08-01T18:37:15.155Z,96655.98
2017-08-01T18:39:42.939Z,96662.36
2017-08-01T18:42:10.584Z,96672.46
2017-08-01T18:44:38.261Z,96680.61
2017-08-01T18:47:05.898Z,96679.56
2017-08-01T18:49:33.601Z,96681.81
2017-08-01T18:52:01.238Z,96690.34
2017-08-01T18:54:28.929Z,96697.32
2017-08-01T18:56:56.568Z,96715.48
2017-08-01T18:59:24.236Z,96737.50
2017-08-01T19:01:52.015Z,96765.83
2017-08-01T19:04:19.694Z,96799.56
2017-08-01T19:06:47.328Z,96823.95
2017-08-01T19:09:15.627Z,96839.24
2017-08-01T19:11:43.346Z,96856.00
2017-08-01T19:14:11.125Z,96869.63
2017-08-01T19:16:40.034Z,96904.47
2017-08-01T19:19:09.085Z,96943.75
2017-08-01T19:21:36.872Z,96995.06
2017-08-01T19:24:04.619Z,97056.63
2017-08-01T19:26:33.453Z,97099.59
2017-08-01T19:29:01.342Z,97161.14
2017-08-01T19:31:29.497Z,97200.13
2017-08-01T19:33:57.253Z,97205.19
2017-08-01T19:36:24.982Z,97228.93
2017-08-01T19:38:52.660Z,97231.67
2017-08-01T19:41:20.447Z,97216.53
2017-08-01T19:43:48.146Z,97194.78
2017-08-01T19:46:15.957Z,97184.34
2017-08-01T19:48:43.610Z,97136.53
2017-08-01T19:51:12.535Z,97082.71
2017-08-01T19:53:40.181Z,97048.94
2017-08-01T19:56:08.019Z,97054.62
2017-08-01T19:58:35.657Z,97073.69
2017-08-01T20:01:03.305Z,97077.75
2017-08-01T20:03:30.941Z,97100.69
2017-08-01T20:05:58.789Z,97111.45
2017-08-01T20:08:26.443Z,97116.76
2017-08-01T20:10:54.117Z,97131.12
2017-08-01T20:13:21.908Z,97151.39
2017-08-01T20:15:49.582Z,97175.77
2017-08-01T20:18:17.200Z,97190.47
2017-08-01T20:20:45.107Z,97197.47
2017-08-01T20:23:12.726Z,97188.03
2017-08-01T20:25:41.288Z,97211.42
2017-08-01T20:28:09.370Z,97234.40
2017-08-01T20:30:37.148Z,97238.38
2017-08-01T20:33:04.778Z,97228.06
2017-08-01T20:35:32.508Z,97216.75
2017-08-01T20:38:00.250Z,97186.31
2017-08-01T20:40:28.281Z,97144.98
2017-08-01T20:42:55.895Z,97140.95
2017-08-01T20:45:23.558Z,97199.45
2017-08-01T20:47:51.238Z,97229.86
2017-08-01T20:50:18.867Z,97211.73
2017-08-01T20:52:46.553Z,97201.98
2017-08-01T20:55:14.206Z,97210.44
2017-08-01T20:57:41.977Z,97215.76
2017-08-01T21:00:09.838Z,97207.14
2017-08-01T21:02:37.572Z,97199.85
2017-08-01T21:05:05.210Z,97180.33
2017-08-01T21:07:32.858Z,97169.17
2017-08-01T21:10:00.605Z,97160.43
2017-08-01T21:12:28.320Z,97158.91
2017-08-01T21:14:55.934Z,97169.22
2017-08-01T21:17:23.757Z,97171.45
2017-08-01T21:19:51.359Z,97174.61
2017-08-01T21:22:19.173Z,97169.00
2017-08-01T21:24:47.057Z,97159.34
2017-08-01T21:27:14.814Z,97164.67
2017-08-01T21:29:42.425Z,97174.41
2017-08-01T21:32:10.085Z,97198.31
2017-08-01T21:34:37.811Z,97209.65
2017-08-01T21:37:05.476Z,97213.18
2017-08-01T21:39:33.092Z,97226.59
2017-08-01T21:42:00.718Z,97251.02
2017-08-01T21:44:28.385Z,97276.30
2017-08-01T21:46:56.019Z,97283.85
2017-08-01T21:49:23.728Z,97274.18
2017-08-01T21:51:51.439Z,97286.92
2017-08-01T21:54:19.147Z,97296.56
2017-08-01T21:56:46.828Z,97310.42
2017-08-01T21:59:14.456Z,97319.54
2017-08-01T22:01:42.419Z,97320.06
2017-08-01T22:04:10.040Z,97331.41
2017-08-01T22:06:38.863Z,97331.07
2017-08-01T22:09:06.503Z,97338.28
2017-08-01T22:11:34.538Z,97354.73
2017-08-01T22:14:02.142Z,97358.92
2017-08-01T22:16:29.776Z,97346.66
2017-08-01T22:18:57.411Z,97333.84
2017-08-01T22:21:25.027Z,97295.97
2017-08-01T22:23:52.747Z,97259.89
2017-08-01T22:26:20.380Z,97235.97
2017-08-01T22:28:48.019Z,97243.59
2017-08-01T22:31:15.645Z,97256.17
2017-08-01T22:33:43.296Z,97275.49
2017-08-01T22:36:10.957Z,97276.28
2017-08-01T22:38:38.606Z,97267.63
2017-08-01T22:41:07.232Z,97246.72
2017-08-01T22:43:34.898Z,97242.81
2017-08-01T22:46:02.498Z,97230.81
2017-08-01T22:48:30.159Z,97244.83
2017-08-01T22:50:57.798Z,97245.18
2017-08-01T22:53:25.455Z,97249.19
2017-08-01T22:55:53.060Z,97248.40
2017-08-01T22:58:20.706Z,97237.55
2017-08-01T23:00:48.330Z,97233.65
2017-08-01T23:03:15.979Z,97227.48
2017-08-01T23:05:43.615Z,97219.23
2017-08-01T23:08:11.389Z,97214.16
2017-08-01T23:10:39.189Z,97227.98
2017-08-01T23:13:06.865Z,97231.09
2017-08-01T23:15:34.557Z,97231.64
2017-08-01T23:18:02.220Z,97244.73
2017-08-01T23:20:29.870Z,97243.55
2017-08-01T23:22:57.616Z,97241.48
2017-08-01T23:25:25.242Z,97232.98
2017-08-01T23:27:52.909Z,97242.52
2017-08-01T23:30:20.530Z,97256.42
2017-08-01T23:32:48.363Z,97261.28
2017-08-01T23:35:15.983Z,97248.02
2017-08-01T23:37:43.644Z,97221.84
2017-08-01T23:40:11.261Z,97205.58
2017-08-01T23:42:38.892Z,97203.54
2017-08-01T23:45:06.619Z,97208.77
2017-08-01T23:47:34.344Z,97216.73
2017-08-01T23:50:02.092Z,97218.92
2017-08-01T23:52:29.716Z,97196.06
2017-08-01T23:54:57.355Z,97167.66
2017-08-01T23:57:25.003Z,97163.61
2017-08-01T23:59:52.665Z,97168.98
